Time;durP1;ratioP1;P1;durP2;ratioP2;P2;SDS_P1;SDS_P2;PMS_P1;PMS_P2;Temp;Humidity;BMP_temperature;BMP_pressure;BME280_temperature;BME280_humidity;BME280_pressure;Samples;Min_cycle;Max_cycle;Signal;HPM_P1;HPM_P2
2020/02/27 00:00:55;;;;;;;5.199999;2.95;;;;;;;0.33;83.28516;94391.66;;;;
2020/02/27 00:02:20;;;;;;;5.199999;2.95;;;;;;;0.33;83.28516;94391.66;;;;
2020/02/27 00:03:26;;;;;;;5.199999;2.95;;;;;;;0.33;83.28516;94391.66;;;;
2020/02/27 00:04:28;;;;;;;5.199999;2.95;;;;;;;0.33;83.28516;94391.66;;;;
2020/02/27 00:05:33;;;;;;;5.199999;2.95;;;;;;;0.33;83.28516;94391.66;;;;
2020/02/27 00:06:34;;;;;;;5.199999;2.95;;;;;;;0.33;83.28516;94391.66;;;;
2020/02/27 00:07:35;;;;;;;5.199999;2.95;;;;;;;0.33;83.28516;94391.66;;;;
2020/02/27 00:08:35;;;;;;;5.199999;2.95;;;;;;;0.33;83.28516;94391.66;;;;
2020/02/27 00:09:40;;;;;;;5.199999;2.95;;;;;;;0.33;83.28516;94391.66;;;;
2020/02/27 00:10:54;;;;;;;3.65;2.8;;;;;;;0.65;82.26172;94413.17;;;;
2020/02/27 00:11:56;;;;;;;3.65;2.8;;;;;;;0.65;82.26172;94413.17;;;;
2020/02/27 00:13:00;;;;;;;3.65;2.8;;;;;;;0.65;82.26172;94413.17;;;;
2020/02/27 00:14:02;;;;;;;3.65;2.8;;;;;;;0.65;82.26172;94413.17;;;;
2020/02/27 00:15:03;;;;;;;3.65;2.8;;;;;;;0.65;82.26172;94413.17;;;;
2020/02/27 00:16:16;;;;;;;3.65;2.8;;;;;;;0.65;82.26172;94413.17;;;;
2020/02/27 00:17:17;;;;;;;3.65;2.8;;;;;;;0.65;82.26172;94413.17;;;;
2020/02/27 00:18:22;;;;;;;3.65;2.8;;;;;;;0.65;82.26172;94413.17;;;;
2020/02/27 00:19:28;;;;;;;3.65;2.8;;;;;;;0.65;82.26172;94413.17;;;;
2020/02/27 00:20:29;;;;;;;3.65;2.8;;;;;;;0.65;82.26172;94413.17;;;;
2020/02/27 00:21:30;;;;;;;4.450001;2.8;;;;;;;0.58;82.11133;94418.13;;;;
2020/02/27 00:22:31;;;;;;;4.450001;2.8;;;;;;;0.58;82.11133;94418.13;;;;
2020/02/27 00:23:31;;;;;;;4.450001;2.8;;;;;;;0.58;82.11133;94418.13;;;;
2020/02/27 00:24:32;;;;;;;4.450001;2.8;;;;;;;0.58;82.11133;94418.13;;;;
2020/02/27 00:25:33;;;;;;;4.450001;2.8;;;;;;;0.58;82.11133;94418.13;;;;
2020/02/27 00:26:33;;;;;;;4.450001;2.8;;;;;;;0.58;82.11133;94418.13;;;;
2020/02/27 00:27:34;;;;;;;4.450001;2.8;;;;;;;0.58;82.11133;94418.13;;;;
2020/02/27 00:28:36;;;;;;;4.450001;2.8;;;;;;;0.58;82.11133;94418.13;;;;
2020/02/27 00:29:36;;;;;;;4.450001;2.8;;;;;;;0.58;82.11133;94418.13;;;;
2020/02/27 00:30:36;;;;;;;4.450001;2.8;;;;;;;0.58;82.11133;94418.13;;;;
2020/02/27 00:31:37;;;;;;;3.9;2.9;;;;;;;0.37;82.11523;94424.77;;;;
2020/02/27 00:32:39;;;;;;;3.9;2.9;;;;;;;0.37;82.11523;94424.77;;;;
2020/02/27 00:33:42;;;;;;;3.9;2.9;;;;;;;0.37;82.11523;94424.77;;;;
2020/02/27 00:34:44;;;;;;;3.9;2.9;;;;;;;0.37;82.11523;94424.77;;;;
2020/02/27 00:35:45;;;;;;;3.9;2.9;;;;;;;0.37;82.11523;94424.77;;;;
2020/02/27 00:36:46;;;;;;;3.9;2.9;;;;;;;0.37;82.11523;94424.77;;;;
2020/02/27 00:37:46;;;;;;;3.9;2.9;;;;;;;0.37;82.11523;94424.77;;;;
2020/02/27 00:38:47;;;;;;;3.9;2.9;;;;;;;0.37;82.11523;94424.77;;;;
2020/02/27 00:39:47;;;;;;;3.9;2.9;;;;;;;0.37;82.11523;94424.77;;;;
2020/02/27 00:40:48;;;;;;;3.9;2.9;;;;;;;0.37;82.11523;94424.77;;;;
2020/02/27 00:41:50;;;;;;;3.9;2.9;;;;;;;0.37;82.11523;94424.77;;;;
2020/02/27 00:42:51;;;;;;;5.05;3.4;;;;;;;0.22;82.54492;94428.94;;;;
2020/02/27 00:43:52;;;;;;;5.05;3.4;;;;;;;0.22;82.54492;94428.94;;;;
2020/02/27 00:44:53;;;;;;;5.05;3.4;;;;;;;0.22;82.54492;94428.94;;;;
2020/02/27 00:45:54;;;;;;;5.05;3.4;;;;;;;0.22;82.54492;94428.94;;;;
2020/02/27 00:46:55;;;;;;;5.05;3.4;;;;;;;0.22;82.54492;94428.94;;;;
2020/02/27 00:47:56;;;;;;;5.05;3.4;;;;;;;0.22;82.54492;94428.94;;;;
2020/02/27 00:48:56;;;;;;;5.05;3.4;;;;;;;0.22;82.54492;94428.94;;;;
2020/02/27 00:49:57;;;;;;;5.05;3.4;;;;;;;0.22;82.54492;94428.94;;;;
2020/02/27 00:51:00;;;;;;;5.05;3.4;;;;;;;0.22;82.54492;94428.94;;;;
2020/02/27 00:52:17;;;;;;;5.05;3.4;;;;;;;0.22;82.54492;94428.94;;;;
2020/02/27 00:53:23;;;;;;;4.950001;3.55;;;;;;;0.21;82.65527;94428.23;;;;
2020/02/27 00:54:26;;;;;;;4.950001;3.55;;;;;;;0.21;82.65527;94428.23;;;;
2020/02/27 00:55:29;;;;;;;4.950001;3.55;;;;;;;0.21;82.65527;94428.23;;;;
2020/02/27 00:56:32;;;;;;;4.950001;3.55;;;;;;;0.21;82.65527;94428.23;;;;
2020/02/27 00:57:33;;;;;;;4.950001;3.55;;;;;;;0.21;82.65527;94428.23;;;;
2020/02/27 00:58:33;;;;;;;4.950001;3.55;;;;;;;0.21;82.65527;94428.23;;;;
2020/02/27 00:59:34;;;;;;;4.950001;3.55;;;;;;;0.21;82.65527;94428.23;;;;
2020/02/27 01:00:35;;;;;;;4.950001;3.55;;;;;;;0.21;82.65527;94428.23;;;;
2020/02/27 01:02:11;;;;;;;4.950001;3.55;;;;;;;0.21;82.65527;94428.23;;;;
2020/02/27 01:03:13;;;;;;;4.950001;3.55;;;;;;;0.21;82.65527;94428.23;;;;
2020/02/27 01:04:15;;;;;;;5.2;3.25;;;;;;;0.08;82.72559;94439.15;;;;
2020/02/27 01:05:16;;;;;;;5.2;3.25;;;;;;;0.08;82.72559;94439.15;;;;
2020/02/27 01:06:17;;;;;;;5.2;3.25;;;;;;;0.08;82.72559;94439.15;;;;
2020/02/27 01:07:18;;;;;;;5.2;3.25;;;;;;;0.08;82.72559;94439.15;;;;
2020/02/27 01:08:18;;;;;;;5.2;3.25;;;;;;;0.08;82.72559;94439.15;;;;
2020/02/27 01:09:19;;;;;;;5.2;3.25;;;;;;;0.08;82.72559;94439.15;;;;
2020/02/27 01:10:20;;;;;;;5.2;3.25;;;;;;;0.08;82.72559;94439.15;;;;
2020/02/27 01:11:20;;;;;;;5.2;3.25;;;;;;;0.08;82.72559;94439.15;;;;
2020/02/27 01:12:21;;;;;;;5.2;3.25;;;;;;;0.08;82.72559;94439.15;;;;
2020/02/27 01:13:21;;;;;;;5.2;3.25;;;;;;;0.08;82.72559;94439.15;;;;
2020/02/27 01:14:22;;;;;;;3.45;2.95;;;;;;;0.12;83.0127;94440.92;;;;
2020/02/27 01:15:24;;;;;;;3.45;2.95;;;;;;;0.12;83.0127;94440.92;;;;
2020/02/27 01:16:24;;;;;;;3.45;2.95;;;;;;;0.12;83.0127;94440.92;;;;
2020/02/27 01:17:25;;;;;;;3.45;2.95;;;;;;;0.12;83.0127;94440.92;;;;
2020/02/27 01:18:26;;;;;;;3.45;2.95;;;;;;;0.12;83.0127;94440.92;;;;
2020/02/27 01:19:26;;;;;;;3.45;2.95;;;;;;;0.12;83.0127;94440.92;;;;
2020/02/27 01:20:27;;;;;;;3.45;2.95;;;;;;;0.12;83.0127;94440.92;;;;
2020/02/27 01:21:27;;;;;;;3.45;2.95;;;;;;;0.12;83.0127;94440.92;;;;
2020/02/27 01:22:28;;;;;;;3.45;2.95;;;;;;;0.12;83.0127;94440.92;;;;
2020/02/27 01:23:28;;;;;;;3.45;2.95;;;;;;;0.12;83.0127;94440.92;;;;
2020/02/27 01:28:29;;;;;;;3.5;2.95;;;;;;;0.24;83.15039;94446.41;;;;
2020/02/27 01:31:30;;;;;;;3.5;2.95;;;;;;;0.24;83.15039;94446.41;;;;
2020/02/27 01:32:30;;;;;;;3.5;2.95;;;;;;;0.24;83.15039;94446.41;;;;
2020/02/27 01:33:30;;;;;;;3.5;2.95;;;;;;;0.24;83.15039;94446.41;;;;
2020/02/27 01:34:31;;;;;;;3.5;2.95;;;;;;;0.24;83.15039;94446.41;;;;
2020/02/27 01:35:32;;;;;;;4.15;3.45;;;;;;;0.47;82.87402;94442.61;;;;
2020/02/27 01:36:32;;;;;;;4.15;3.45;;;;;;;0.47;82.87402;94442.61;;;;
2020/02/27 01:37:33;;;;;;;4.15;3.45;;;;;;;0.47;82.87402;94442.61;;;;
2020/02/27 01:38:33;;;;;;;4.15;3.45;;;;;;;0.47;82.87402;94442.61;;;;
2020/02/27 01:39:34;;;;;;;4.15;3.45;;;;;;;0.47;82.87402;94442.61;;;;
2020/02/27 01:40:36;;;;;;;4.15;3.45;;;;;;;0.47;82.87402;94442.61;;;;
2020/02/27 01:41:37;;;;;;;4.15;3.45;;;;;;;0.47;82.87402;94442.61;;;;
2020/02/27 01:42:38;;;;;;;4.15;3.45;;;;;;;0.47;82.87402;94442.61;;;;
2020/02/27 01:43:38;;;;;;;4.15;3.45;;;;;;;0.47;82.87402;94442.61;;;;
2020/02/27 01:44:39;;;;;;;4.15;3.45;;;;;;;0.47;82.87402;94442.61;;;;
2020/02/27 01:45:39;;;;;;;4.15;3.45;;;;;;;0.47;82.87402;94442.61;;;;
2020/02/27 01:46:40;;;;;;;3.1;2.8;;;;;;;0.56;82.50391;94439.15;;;;
2020/02/27 01:47:40;;;;;;;3.1;2.8;;;;;;;0.56;82.50391;94439.15;;;;
2020/02/27 01:48:41;;;;;;;3.1;2.8;;;;;;;0.56;82.50391;94439.15;;;;
2020/02/27 01:49:42;;;;;;;3.1;2.8;;;;;;;0.56;82.50391;94439.15;;;;
2020/02/27 01:50:42;;;;;;;3.1;2.8;;;;;;;0.56;82.50391;94439.15;;;;
2020/02/27 01:51:42;;;;;;;3.1;2.8;;;;;;;0.56;82.50391;94439.15;;;;
2020/02/27 01:52:43;;;;;;;3.1;2.8;;;;;;;0.56;82.50391;94439.15;;;;
2020/02/27 01:53:44;;;;;;;3.1;2.8;;;;;;;0.56;82.50391;94439.15;;;;
2020/02/27 01:54:44;;;;;;;3.1;2.8;;;;;;;0.56;82.50391;94439.15;;;;
2020/02/27 01:55:45;;;;;;;3.1;2.8;;;;;;;0.56;82.50391;94439.15;;;;
2020/02/27 01:56:45;;;;;;;3.65;2.85;;;;;;;0.69;82.31055;94440.99;;;;
2020/02/27 01:57:46;;;;;;;3.65;2.85;;;;;;;0.69;82.31055;94440.99;;;;
2020/02/27 01:58:46;;;;;;;3.65;2.85;;;;;;;0.69;82.31055;94440.99;;;;
2020/02/27 01:59:47;;;;;;;3.65;2.85;;;;;;;0.69;82.31055;94440.99;;;;
2020/02/27 02:00:47;;;;;;;3.65;2.85;;;;;;;0.69;82.31055;94440.99;;;;
2020/02/27 02:01:48;;;;;;;3.65;2.85;;;;;;;0.69;82.31055;94440.99;;;;
2020/02/27 02:02:48;;;;;;;3.65;2.85;;;;;;;0.69;82.31055;94440.99;;;;
2020/02/27 02:03:49;;;;;;;3.65;2.85;;;;;;;0.69;82.31055;94440.99;;;;
2020/02/27 02:04:50;;;;;;;3.65;2.85;;;;;;;0.69;82.31055;94440.99;;;;
2020/02/27 02:05:50;;;;;;;3.65;2.85;;;;;;;0.69;82.31055;94440.99;;;;
2020/02/27 02:06:51;;;;;;;3.65;2.85;;;;;;;0.69;82.31055;94440.99;;;;
2020/02/27 02:07:51;;;;;;;3.65;2.7;;;;;;;0.68;81.98535;94443.34;;;;
2020/02/27 02:08:52;;;;;;;3.65;2.7;;;;;;;0.68;81.98535;94443.34;;;;
2020/02/27 02:09:52;;;;;;;3.65;2.7;;;;;;;0.68;81.98535;94443.34;;;;
2020/02/27 02:10:56;;;;;;;3.65;2.7;;;;;;;0.68;81.98535;94443.34;;;;
2020/02/27 02:11:57;;;;;;;3.65;2.7;;;;;;;0.68;81.98535;94443.34;;;;
2020/02/27 02:12:57;;;;;;;3.65;2.7;;;;;;;0.68;81.98535;94443.34;;;;
2020/02/27 02:13:58;;;;;;;3.65;2.7;;;;;;;0.68;81.98535;94443.34;;;;
2020/02/27 02:14:58;;;;;;;3.65;2.7;;;;;;;0.68;81.98535;94443.34;;;;
2020/02/27 02:15:59;;;;;;;3.65;2.7;;;;;;;0.68;81.98535;94443.34;;;;
2020/02/27 02:16:59;;;;;;;3.65;2.7;;;;;;;0.68;81.98535;94443.34;;;;
2020/02/27 02:18:00;;;;;;;2.8;2.5;;;;;;;0.73;81.97363;94440.08;;;;
2020/02/27 02:19:00;;;;;;;2.8;2.5;;;;;;;0.73;81.97363;94440.08;;;;
2020/02/27 02:20:01;;;;;;;2.8;2.5;;;;;;;0.73;81.97363;94440.08;;;;
2020/02/27 02:21:03;;;;;;;2.8;2.5;;;;;;;0.73;81.97363;94440.08;;;;
2020/02/27 02:22:04;;;;;;;2.8;2.5;;;;;;;0.73;81.97363;94440.08;;;;
2020/02/27 02:23:04;;;;;;;2.8;2.5;;;;;;;0.73;81.97363;94440.08;;;;
2020/02/27 02:24:05;;;;;;;2.8;2.5;;;;;;;0.73;81.97363;94440.08;;;;
2020/02/27 02:25:05;;;;;;;2.8;2.5;;;;;;;0.73;81.97363;94440.08;;;;
2020/02/27 02:26:06;;;;;;;2.8;2.5;;;;;;;0.73;81.97363;94440.08;;;;
2020/02/27 02:27:07;;;;;;;2.8;2.5;;;;;;;0.73;81.97363;94440.08;;;;
2020/02/27 02:28:08;;;;;;;2.8;2.5;;;;;;;0.73;81.97363;94440.08;;;;
2020/02/27 02:29:09;;;;;;;2.7;2.4;;;;;;;0.72;81.84668;94442.02;;;;
2020/02/27 02:30:55;;;;;;;2.7;2.4;;;;;;;0.72;81.84668;94442.02;;;;
2020/02/27 02:33:08;;;;;;;2.7;2.4;;;;;;;0.72;81.84668;94442.02;;;;
2020/02/27 02:39:21;;;;;;;3.65;2.45;;;;;;;0.75;81.74902;94442.86;;;;
2020/02/27 02:40:30;;;;;;;3.65;2.45;;;;;;;0.75;81.74902;94442.86;;;;
2020/02/27 02:41:30;;;;;;;3.65;2.45;;;;;;;0.75;81.74902;94442.86;;;;
2020/02/27 02:42:31;;;;;;;3.65;2.45;;;;;;;0.75;81.74902;94442.86;;;;
2020/02/27 02:43:32;;;;;;;3.65;2.45;;;;;;;0.75;81.74902;94442.86;;;;
2020/02/27 02:44:32;;;;;;;3.65;2.45;;;;;;;0.75;81.74902;94442.86;;;;
2020/02/27 02:45:33;;;;;;;3.65;2.45;;;;;;;0.75;81.74902;94442.86;;;;
2020/02/27 02:46:34;;;;;;;3.65;2.45;;;;;;;0.75;81.74902;94442.86;;;;
2020/02/27 02:47:34;;;;;;;3.65;2.45;;;;;;;0.75;81.74902;94442.86;;;;
2020/02/27 02:48:35;;;;;;;3.65;2.45;;;;;;;0.75;81.74902;94442.86;;;;
2020/02/27 02:49:36;;;;;;;3.899999;2.5;;;;;;;0.69;81.69531;94447.63;;;;
2020/02/27 02:50:38;;;;;;;3.899999;2.5;;;;;;;0.69;81.69531;94447.63;;;;
2020/02/27 02:51:39;;;;;;;3.899999;2.5;;;;;;;0.69;81.69531;94447.63;;;;
2020/02/27 02:52:40;;;;;;;3.899999;2.5;;;;;;;0.69;81.69531;94447.63;;;;
2020/02/27 02:53:40;;;;;;;3.899999;2.5;;;;;;;0.69;81.69531;94447.63;;;;
2020/02/27 02:54:41;;;;;;;3.899999;2.5;;;;;;;0.69;81.69531;94447.63;;;;
2020/02/27 02:55:41;;;;;;;3.899999;2.5;;;;;;;0.69;81.69531;94447.63;;;;
2020/02/27 02:56:42;;;;;;;3.899999;2.5;;;;;;;0.69;81.69531;94447.63;;;;
2020/02/27 02:57:42;;;;;;;3.899999;2.5;;;;;;;0.69;81.69531;94447.63;;;;
2020/02/27 02:58:43;;;;;;;3.899999;2.5;;;;;;;0.69;81.69531;94447.63;;;;
2020/02/27 02:59:43;;;;;;;3.899999;2.5;;;;;;;0.69;81.69531;94447.63;;;;
2020/02/27 03:00:44;;;;;;;2.65;2.45;;;;;;;0.71;81.83203;94448.33;;;;
2020/02/27 03:01:45;;;;;;;2.65;2.45;;;;;;;0.71;81.83203;94448.33;;;;
2020/02/27 03:02:45;;;;;;;2.65;2.45;;;;;;;0.71;81.83203;94448.33;;;;
2020/02/27 03:03:46;;;;;;;2.65;2.45;;;;;;;0.71;81.83203;94448.33;;;;
2020/02/27 03:04:46;;;;;;;2.65;2.45;;;;;;;0.71;81.83203;94448.33;;;;
2020/02/27 03:05:47;;;;;;;2.65;2.45;;;;;;;0.71;81.83203;94448.33;;;;
2020/02/27 03:06:47;;;;;;;2.65;2.45;;;;;;;0.71;81.83203;94448.33;;;;
2020/02/27 03:07:48;;;;;;;2.65;2.45;;;;;;;0.71;81.83203;94448.33;;;;
2020/02/27 03:08:49;;;;;;;2.65;2.45;;;;;;;0.71;81.83203;94448.33;;;;
2020/02/27 03:09:50;;;;;;;2.65;2.45;;;;;;;0.71;81.83203;94448.33;;;;
2020/02/27 03:10:56;;;;;;;5.149999;3.3;;;;;;;0.58;81.74805;94453.49;;;;
2020/02/27 03:11:57;;;;;;;5.149999;3.3;;;;;;;0.58;81.74805;94453.49;;;;
2020/02/27 03:12:57;;;;;;;5.149999;3.3;;;;;;;0.58;81.74805;94453.49;;;;
2020/02/27 03:13:58;;;;;;;5.149999;3.3;;;;;;;0.58;81.74805;94453.49;;;;
2020/02/27 03:14:58;;;;;;;5.149999;3.3;;;;;;;0.58;81.74805;94453.49;;;;
2020/02/27 03:15:59;;;;;;;5.149999;3.3;;;;;;;0.58;81.74805;94453.49;;;;
2020/02/27 03:16:59;;;;;;;5.149999;3.3;;;;;;;0.58;81.74805;94453.49;;;;
2020/02/27 03:18:00;;;;;;;5.149999;3.3;;;;;;;0.58;81.74805;94453.49;;;;
2020/02/27 03:19:04;;;;;;;5.149999;3.3;;;;;;;0.58;81.74805;94453.49;;;;
2020/02/27 03:20:04;;;;;;;5.149999;3.3;;;;;;;0.58;81.74805;94453.49;;;;
2020/02/27 03:21:05;;;;;;;5.149999;3.3;;;;;;;0.58;81.74805;94453.49;;;;
2020/02/27 03:22:05;;;;;;;4.85;3.3;;;;;;;0.58;82.08203;94456.14;;;;
2020/02/27 03:23:06;;;;;;;4.85;3.3;;;;;;;0.58;82.08203;94456.14;;;;
2020/02/27 03:24:07;;;;;;;4.85;3.3;;;;;;;0.58;82.08203;94456.14;;;;
2020/02/27 03:25:07;;;;;;;4.85;3.3;;;;;;;0.58;82.08203;94456.14;;;;
2020/02/27 03:26:08;;;;;;;4.85;3.3;;;;;;;0.58;82.08203;94456.14;;;;
2020/02/27 03:27:08;;;;;;;4.85;3.3;;;;;;;0.58;82.08203;94456.14;;;;
2020/02/27 03:28:09;;;;;;;4.85;3.3;;;;;;;0.58;82.08203;94456.14;;;;
2020/02/27 03:29:10;;;;;;;4.85;3.3;;;;;;;0.58;82.08203;94456.14;;;;
2020/02/27 03:30:10;;;;;;;4.85;3.3;;;;;;;0.58;82.08203;94456.14;;;;
2020/02/27 03:31:13;;;;;;;4.85;3.3;;;;;;;0.58;82.08203;94456.14;;;;
2020/02/27 03:32:13;;;;;;;3.7;3;;;;;;;0.57;81.99512;94461.15;;;;
2020/02/27 03:33:14;;;;;;;3.7;3;;;;;;;0.57;81.99512;94461.15;;;;
2020/02/27 03:34:14;;;;;;;3.7;3;;;;;;;0.57;81.99512;94461.15;;;;
2020/02/27 03:35:15;;;;;;;3.7;3;;;;;;;0.57;81.99512;94461.15;;;;
2020/02/27 03:36:15;;;;;;;3.7;3;;;;;;;0.57;81.99512;94461.15;;;;
2020/02/27 03:37:16;;;;;;;3.7;3;;;;;;;0.57;81.99512;94461.15;;;;
2020/02/27 03:38:16;;;;;;;3.7;3;;;;;;;0.57;81.99512;94461.15;;;;
2020/02/27 03:39:17;;;;;;;3.7;3;;;;;;;0.57;81.99512;94461.15;;;;
2020/02/27 03:40:18;;;;;;;3.7;3;;;;;;;0.57;81.99512;94461.15;;;;
2020/02/27 03:41:18;;;;;;;3.7;3;;;;;;;0.57;81.99512;94461.15;;;;
2020/02/27 03:42:19;;;;;;;3.7;3;;;;;;;0.57;81.99512;94461.15;;;;
2020/02/27 03:43:20;;;;;;;3.25;2.95;;;;;;;0.6;82.39648;94460.83;;;;
2020/02/27 03:44:21;;;;;;;3.25;2.95;;;;;;;0.6;82.39648;94460.83;;;;
2020/02/27 03:45:21;;;;;;;3.25;2.95;;;;;;;0.6;82.39648;94460.83;;;;
2020/02/27 03:46:22;;;;;;;3.25;2.95;;;;;;;0.6;82.39648;94460.83;;;;
2020/02/27 03:47:23;;;;;;;3.25;2.95;;;;;;;0.6;82.39648;94460.83;;;;
2020/02/27 03:48:23;;;;;;;3.25;2.95;;;;;;;0.6;82.39648;94460.83;;;;
2020/02/27 03:49:24;;;;;;;3.25;2.95;;;;;;;0.6;82.39648;94460.83;;;;
2020/02/27 03:50:26;;;;;;;3.25;2.95;;;;;;;0.6;82.39648;94460.83;;;;
2020/02/27 03:51:27;;;;;;;3.25;2.95;;;;;;;0.6;82.39648;94460.83;;;;
2020/02/27 03:52:28;;;;;;;3.25;2.95;;;;;;;0.6;82.39648;94460.83;;;;
2020/02/27 03:53:28;;;;;;;3.65;3.35;;;;;;;0.47;82.31055;94461.19;;;;
2020/02/27 03:54:29;;;;;;;3.65;3.35;;;;;;;0.47;82.31055;94461.19;;;;
2020/02/27 03:55:31;;;;;;;3.65;3.35;;;;;;;0.47;82.31055;94461.19;;;;
2020/02/27 03:56:32;;;;;;;3.65;3.35;;;;;;;0.47;82.31055;94461.19;;;;
2020/02/27 03:57:33;;;;;;;3.65;3.35;;;;;;;0.47;82.31055;94461.19;;;;
2020/02/27 03:58:33;;;;;;;3.65;3.35;;;;;;;0.47;82.31055;94461.19;;;;
2020/02/27 03:59:36;;;;;;;3.65;3.35;;;;;;;0.47;82.31055;94461.19;;;;
2020/02/27 04:00:38;;;;;;;3.65;3.35;;;;;;;0.47;82.31055;94461.19;;;;
2020/02/27 04:01:39;;;;;;;3.65;3.35;;;;;;;0.47;82.31055;94461.19;;;;
2020/02/27 04:02:40;;;;;;;3.65;3.35;;;;;;;0.47;82.31055;94461.19;;;;
2020/02/27 04:03:41;;;;;;;3.65;3.35;;;;;;;0.47;82.31055;94461.19;;;;
2020/02/27 04:04:42;;;;;;;3.75;3.45;;;;;;;0.37;83.02051;94464.18;;;;
2020/02/27 04:05:42;;;;;;;3.75;3.45;;;;;;;0.37;83.02051;94464.18;;;;
2020/02/27 04:06:43;;;;;;;3.75;3.45;;;;;;;0.37;83.02051;94464.18;;;;
2020/02/27 04:07:43;;;;;;;3.75;3.45;;;;;;;0.37;83.02051;94464.18;;;;
2020/02/27 04:08:44;;;;;;;3.75;3.45;;;;;;;0.37;83.02051;94464.18;;;;
2020/02/27 04:09:46;;;;;;;3.75;3.45;;;;;;;0.37;83.02051;94464.18;;;;
2020/02/27 04:10:50;;;;;;;3.75;3.45;;;;;;;0.37;83.02051;94464.18;;;;
2020/02/27 04:12:03;;;;;;;3.75;3.45;;;;;;;0.37;83.02051;94464.18;;;;
2020/02/27 04:13:03;;;;;;;3.75;3.45;;;;;;;0.37;83.02051;94464.18;;;;
2020/02/27 04:14:04;;;;;;;3.75;3.45;;;;;;;0.37;83.02051;94464.18;;;;
2020/02/27 04:15:04;;;;;;;4.149999;3.75;;;;;;;0.37;83.68652;94472.15;;;;
2020/02/27 04:16:07;;;;;;;4.149999;3.75;;;;;;;0.37;83.68652;94472.15;;;;
2020/02/27 04:17:08;;;;;;;4.149999;3.75;;;;;;;0.37;83.68652;94472.15;;;;
2020/02/27 04:18:08;;;;;;;4.149999;3.75;;;;;;;0.37;83.68652;94472.15;;;;
2020/02/27 04:19:10;;;;;;;4.149999;3.75;;;;;;;0.37;83.68652;94472.15;;;;
2020/02/27 04:20:11;;;;;;;4.149999;3.75;;;;;;;0.37;83.68652;94472.15;;;;
2020/02/27 04:21:11;;;;;;;4.149999;3.75;;;;;;;0.37;83.68652;94472.15;;;;
2020/02/27 04:22:12;;;;;;;4.149999;3.75;;;;;;;0.37;83.68652;94472.15;;;;
2020/02/27 04:23:13;;;;;;;4.149999;3.75;;;;;;;0.37;83.68652;94472.15;;;;
2020/02/27 04:24:14;;;;;;;4.149999;3.75;;;;;;;0.37;83.68652;94472.15;;;;
2020/02/27 04:25:15;;;;;;;3.75;3.3;;;;;;;0.49;83.58789;94478.97;;;;
2020/02/27 04:26:15;;;;;;;3.75;3.3;;;;;;;0.49;83.58789;94478.97;;;;
2020/02/27 04:27:16;;;;;;;3.75;3.3;;;;;;;0.49;83.58789;94478.97;;;;
2020/02/27 04:28:16;;;;;;;3.75;3.3;;;;;;;0.49;83.58789;94478.97;;;;
2020/02/27 04:29:17;;;;;;;3.75;3.3;;;;;;;0.49;83.58789;94478.97;;;;
2020/02/27 04:30:17;;;;;;;3.75;3.3;;;;;;;0.49;83.58789;94478.97;;;;
2020/02/27 04:31:18;;;;;;;3.75;3.3;;;;;;;0.49;83.58789;94478.97;;;;
2020/02/27 04:32:18;;;;;;;3.75;3.3;;;;;;;0.49;83.58789;94478.97;;;;
2020/02/27 04:33:19;;;;;;;3.75;3.3;;;;;;;0.49;83.58789;94478.97;;;;
2020/02/27 04:34:19;;;;;;;3.75;3.3;;;;;;;0.49;83.58789;94478.97;;;;
2020/02/27 04:35:20;;;;;;;3.75;3.3;;;;;;;0.49;83.58789;94478.97;;;;
2020/02/27 04:36:20;;;;;;;4;3.15;;;;;;;0.52;83.3623;94482.14;;;;
2020/02/27 04:37:21;;;;;;;4;3.15;;;;;;;0.52;83.3623;94482.14;;;;
2020/02/27 04:38:22;;;;;;;4;3.15;;;;;;;0.52;83.3623;94482.14;;;;
2020/02/27 04:39:22;;;;;;;4;3.15;;;;;;;0.52;83.3623;94482.14;;;;
2020/02/27 04:40:23;;;;;;;4;3.15;;;;;;;0.52;83.3623;94482.14;;;;
2020/02/27 04:41:23;;;;;;;4;3.15;;;;;;;0.52;83.3623;94482.14;;;;
2020/02/27 04:42:24;;;;;;;4;3.15;;;;;;;0.52;83.3623;94482.14;;;;
2020/02/27 04:43:24;;;;;;;4;3.15;;;;;;;0.52;83.3623;94482.14;;;;
2020/02/27 04:44:25;;;;;;;4;3.15;;;;;;;0.52;83.3623;94482.14;;;;
2020/02/27 04:45:25;;;;;;;4;3.15;;;;;;;0.52;83.3623;94482.14;;;;
2020/02/27 04:46:26;;;;;;;4.1;3.149999;;;;;;;0.54;83.34473;94475.71;;;;
2020/02/27 04:47:26;;;;;;;4.1;3.149999;;;;;;;0.54;83.34473;94475.71;;;;
2020/02/27 04:48:26;;;;;;;4.1;3.149999;;;;;;;0.54;83.34473;94475.71;;;;
2020/02/27 04:49:27;;;;;;;4.1;3.149999;;;;;;;0.54;83.34473;94475.71;;;;
2020/02/27 04:50:27;;;;;;;4.1;3.149999;;;;;;;0.54;83.34473;94475.71;;;;
2020/02/27 04:51:28;;;;;;;4.1;3.149999;;;;;;;0.54;83.34473;94475.71;;;;
2020/02/27 04:52:29;;;;;;;4.1;3.149999;;;;;;;0.54;83.34473;94475.71;;;;
2020/02/27 04:53:29;;;;;;;4.1;3.149999;;;;;;;0.54;83.34473;94475.71;;;;
2020/02/27 04:54:30;;;;;;;4.1;3.149999;;;;;;;0.54;83.34473;94475.71;;;;
2020/02/27 04:55:31;;;;;;;4.1;3.149999;;;;;;;0.54;83.34473;94475.71;;;;
2020/02/27 04:56:31;;;;;;;4.1;3.149999;;;;;;;0.54;83.34473;94475.71;;;;
2020/02/27 04:57:32;;;;;;;5.2;3.45;;;;;;;0.4;83.41113;94484.61;;;;
2020/02/27 04:58:34;;;;;;;5.2;3.45;;;;;;;0.4;83.41113;94484.61;;;;
2020/02/27 04:59:34;;;;;;;5.2;3.45;;;;;;;0.4;83.41113;94484.61;;;;
2020/02/27 05:00:35;;;;;;;5.2;3.45;;;;;;;0.4;83.41113;94484.61;;;;
2020/02/27 05:01:36;;;;;;;5.2;3.45;;;;;;;0.4;83.41113;94484.61;;;;
2020/02/27 05:02:36;;;;;;;5.2;3.45;;;;;;;0.4;83.41113;94484.61;;;;
2020/02/27 05:03:37;;;;;;;5.2;3.45;;;;;;;0.4;83.41113;94484.61;;;;
2020/02/27 05:04:37;;;;;;;5.2;3.45;;;;;;;0.4;83.41113;94484.61;;;;
2020/02/27 05:05:38;;;;;;;5.2;3.45;;;;;;;0.4;83.41113;94484.61;;;;
2020/02/27 05:06:38;;;;;;;5.2;3.45;;;;;;;0.4;83.41113;94484.61;;;;
2020/02/27 05:07:39;;;;;;;4.050001;3;;;;;;;0.26;83.65625;94493.91;;;;
2020/02/27 05:08:40;;;;;;;4.050001;3;;;;;;;0.26;83.65625;94493.91;;;;
2020/02/27 05:09:40;;;;;;;4.050001;3;;;;;;;0.26;83.65625;94493.91;;;;
2020/02/27 05:10:41;;;;;;;4.050001;3;;;;;;;0.26;83.65625;94493.91;;;;
2020/02/27 05:11:41;;;;;;;4.050001;3;;;;;;;0.26;83.65625;94493.91;;;;
2020/02/27 05:12:42;;;;;;;4.050001;3;;;;;;;0.26;83.65625;94493.91;;;;
2020/02/27 05:13:43;;;;;;;4.050001;3;;;;;;;0.26;83.65625;94493.91;;;;
2020/02/27 05:14:43;;;;;;;4.050001;3;;;;;;;0.26;83.65625;94493.91;;;;
2020/02/27 05:15:44;;;;;;;4.050001;3;;;;;;;0.26;83.65625;94493.91;;;;
2020/02/27 05:16:44;;;;;;;4.050001;3;;;;;;;0.26;83.65625;94493.91;;;;
2020/02/27 05:17:45;;;;;;;4.050001;3;;;;;;;0.26;83.65625;94493.91;;;;
2020/02/27 05:18:45;;;;;;;3.5;3.15;;;;;;;0.2;83.6748;94488.95;;;;
2020/02/27 05:19:46;;;;;;;3.5;3.15;;;;;;;0.2;83.6748;94488.95;;;;
2020/02/27 05:20:46;;;;;;;3.5;3.15;;;;;;;0.2;83.6748;94488.95;;;;
2020/02/27 05:21:47;;;;;;;3.5;3.15;;;;;;;0.2;83.6748;94488.95;;;;
2020/02/27 05:22:47;;;;;;;3.5;3.15;;;;;;;0.2;83.6748;94488.95;;;;
2020/02/27 05:23:48;;;;;;;3.5;3.15;;;;;;;0.2;83.6748;94488.95;;;;
2020/02/27 05:24:48;;;;;;;3.5;3.15;;;;;;;0.2;83.6748;94488.95;;;;
2020/02/27 05:25:49;;;;;;;3.5;3.15;;;;;;;0.2;83.6748;94488.95;;;;
2020/02/27 05:26:53;;;;;;;3.5;3.15;;;;;;;0.2;83.6748;94488.95;;;;
2020/02/27 05:27:53;;;;;;;3.5;3.15;;;;;;;0.2;83.6748;94488.95;;;;
2020/02/27 05:28:54;;;;;;;4;3.05;;;;;;;0.28;83.50195;94481.76;;;;
2020/02/27 05:29:58;;;;;;;4;3.05;;;;;;;0.28;83.50195;94481.76;;;;
2020/02/27 05:31:03;;;;;;;4;3.05;;;;;;;0.28;83.50195;94481.76;;;;
2020/02/27 05:32:26;;;;;;;4;3.05;;;;;;;0.28;83.50195;94481.76;;;;
2020/02/27 05:33:33;;;;;;;4;3.05;;;;;;;0.28;83.50195;94481.76;;;;
2020/02/27 05:34:34;;;;;;;4;3.05;;;;;;;0.28;83.50195;94481.76;;;;
2020/02/27 05:35:35;;;;;;;4;3.05;;;;;;;0.28;83.50195;94481.76;;;;
2020/02/27 05:36:36;;;;;;;4;3.05;;;;;;;0.28;83.50195;94481.76;;;;
2020/02/27 05:37:37;;;;;;;4;3.05;;;;;;;0.28;83.50195;94481.76;;;;
2020/02/27 05:38:38;;;;;;;4;3.05;;;;;;;0.28;83.50195;94481.76;;;;
2020/02/27 05:39:39;;;;;;;3.8;3.15;;;;;;;0.32;83.67578;94483.03;;;;
2020/02/27 05:40:40;;;;;;;3.8;3.15;;;;;;;0.32;83.67578;94483.03;;;;
2020/02/27 05:41:40;;;;;;;3.8;3.15;;;;;;;0.32;83.67578;94483.03;;;;
2020/02/27 05:42:40;;;;;;;3.8;3.15;;;;;;;0.32;83.67578;94483.03;;;;
2020/02/27 05:43:41;;;;;;;3.8;3.15;;;;;;;0.32;83.67578;94483.03;;;;
2020/02/27 05:44:41;;;;;;;3.8;3.15;;;;;;;0.32;83.67578;94483.03;;;;
2020/02/27 05:45:42;;;;;;;3.8;3.15;;;;;;;0.32;83.67578;94483.03;;;;
2020/02/27 05:46:42;;;;;;;3.8;3.15;;;;;;;0.32;83.67578;94483.03;;;;
2020/02/27 05:47:43;;;;;;;3.8;3.15;;;;;;;0.32;83.67578;94483.03;;;;
2020/02/27 05:48:43;;;;;;;3.8;3.15;;;;;;;0.32;83.67578;94483.03;;;;
2020/02/27 05:49:44;;;;;;;3.8;3.15;;;;;;;0.32;83.67578;94483.03;;;;
2020/02/27 05:50:44;;;;;;;3.3;3;;;;;;;0.45;83.56836;94472.92;;;;
2020/02/27 05:51:45;;;;;;;3.3;3;;;;;;;0.45;83.56836;94472.92;;;;
2020/02/27 05:52:45;;;;;;;3.3;3;;;;;;;0.45;83.56836;94472.92;;;;
2020/02/27 05:53:48;;;;;;;3.3;3;;;;;;;0.45;83.56836;94472.92;;;;
2020/02/27 05:54:49;;;;;;;3.3;3;;;;;;;0.45;83.56836;94472.92;;;;
2020/02/27 05:55:49;;;;;;;3.3;3;;;;;;;0.45;83.56836;94472.92;;;;
2020/02/27 05:56:49;;;;;;;3.3;3;;;;;;;0.45;83.56836;94472.92;;;;
2020/02/27 05:57:50;;;;;;;3.3;3;;;;;;;0.45;83.56836;94472.92;;;;
2020/02/27 05:58:50;;;;;;;3.3;3;;;;;;;0.45;83.56836;94472.92;;;;
2020/02/27 05:59:51;;;;;;;3.3;3;;;;;;;0.45;83.56836;94472.92;;;;
2020/02/27 06:00:51;;;;;;;3.85;2.65;;;;;;;0.47;83.35254;94470.37;;;;
2020/02/27 06:01:52;;;;;;;3.85;2.65;;;;;;;0.47;83.35254;94470.37;;;;
2020/02/27 06:02:52;;;;;;;3.85;2.65;;;;;;;0.47;83.35254;94470.37;;;;
2020/02/27 06:03:53;;;;;;;3.85;2.65;;;;;;;0.47;83.35254;94470.37;;;;
2020/02/27 06:04:53;;;;;;;3.85;2.65;;;;;;;0.47;83.35254;94470.37;;;;
2020/02/27 06:05:54;;;;;;;3.85;2.65;;;;;;;0.47;83.35254;94470.37;;;;
2020/02/27 06:06:54;;;;;;;3.85;2.65;;;;;;;0.47;83.35254;94470.37;;;;